createdAt,value
2019-05-25T00:00:21.301Z,17.82
2019-05-25T00:02:53.880Z,17.70
2019-05-25T00:05:26.001Z,17.52
2019-05-25T00:07:58.220Z,17.80
2019-05-25T00:10:30.306Z,18.70
2019-05-25T00:13:02.461Z,17.80
2019-05-25T00:15:34.942Z,21.48
2019-05-25T00:18:07.403Z,22.00
2019-05-25T00:20:40.632Z,21.85
2019-05-25T00:23:12.759Z,22.25
2019-05-25T00:25:44.908Z,20.23
2019-05-25T00:28:17.315Z,20.88
2019-05-25T00:30:49.873Z,21.65
2019-05-25T00:33:22.559Z,21.48
2019-05-25T00:35:54.937Z,22.05
2019-05-25T00:38:27.224Z,22.00
2019-05-25T00:40:59.497Z,21.75
2019-05-25T00:43:31.819Z,20.95
2019-05-25T00:46:04.078Z,22.60
2019-05-25T00:48:37.379Z,22.20
2019-05-25T00:51:09.538Z,23.25
2019-05-25T00:53:42.098Z,25.62
2019-05-25T00:56:14.435Z,25.02
2019-05-25T00:58:46.629Z,25.25
2019-05-25T01:01:18.806Z,25.00
2019-05-25T01:03:51.079Z,25.55
2019-05-25T01:06:23.229Z,25.35
2019-05-25T01:08:55.601Z,24.50
2019-05-25T01:11:29.424Z,25.02
2019-05-25T01:14:01.719Z,24.32
2019-05-25T01:16:33.818Z,24.98
2019-05-25T01:19:06.086Z,24.10
2019-05-25T01:21:38.377Z,22.87
2019-05-25T01:24:10.819Z,22.52
2019-05-25T01:26:43.239Z,22.70
2019-05-25T01:29:17.835Z,23.35
2019-05-25T01:31:50.121Z,22.62
2019-05-25T01:34:22.457Z,23.25
2019-05-25T01:36:55.896Z,24.23
2019-05-25T01:39:28.099Z,22.65
2019-05-25T01:42:01.468Z,22.40
2019-05-25T01:44:33.827Z,23.38
2019-05-25T01:47:06.329Z,22.50
2019-05-25T01:49:38.619Z,23.62
2019-05-25T01:52:10.879Z,23.20
2019-05-25T01:54:58.616Z,22.75
2019-05-25T01:57:17.230Z,23.52
2019-05-25T01:59:49.478Z,23.18
2019-05-25T02:02:21.783Z,23.40
2019-05-25T02:04:54.212Z,23.45
2019-05-25T02:07:26.501Z,24.18
2019-05-25T02:09:58.872Z,22.77
2019-05-25T02:12:31.107Z,22.87
2019-05-25T02:15:04.079Z,23.90
2019-05-25T02:17:36.317Z,24.65
2019-05-25T02:20:09.617Z,23.65
2019-05-25T02:22:42.219Z,24.80
2019-05-25T02:25:18.224Z,25.97
2019-05-25T02:27:48.829Z,24.65
2019-05-25T02:30:24.007Z,25.23
2019-05-25T02:32:56.355Z,26.52
2019-05-25T02:35:30.794Z,26.57
2019-05-25T02:38:03.128Z,25.57
2019-05-25T02:40:36.429Z,25.02
2019-05-25T02:43:08.497Z,25.57
2019-05-25T02:45:41.500Z,25.45
2019-05-25T02:48:14.839Z,25.57
2019-05-25T02:50:47.559Z,25.80
2019-05-25T02:53:19.791Z,25.95
2019-05-25T02:55:52.131Z,26.10
2019-05-25T02:58:24.545Z,25.92
2019-05-25T03:00:56.892Z,26.30
2019-05-25T03:03:30.337Z,26.60
2019-05-25T03:06:03.426Z,26.77
2019-05-25T03:08:37.691Z,27.45
2019-05-25T03:11:09.933Z,25.88
2019-05-25T03:13:42.924Z,25.95
2019-05-25T03:16:15.180Z,26.75
2019-05-25T03:18:47.432Z,25.50
2019-05-25T03:21:19.573Z,25.92
2019-05-25T03:23:51.812Z,26.45
2019-05-25T03:26:24.203Z,25.97
2019-05-25T03:28:56.359Z,26.33
2019-05-25T03:31:28.444Z,26.35
2019-05-25T03:34:01.107Z,26.20
2019-05-25T03:36:33.528Z,26.42
2019-05-25T03:39:08.019Z,26.90
2019-05-25T03:41:40.075Z,24.37
2019-05-25T03:44:14.672Z,23.70
2019-05-25T03:46:46.927Z,24.23
2019-05-25T03:49:19.201Z,23.47
2019-05-25T03:51:52.426Z,22.85
2019-05-25T03:54:24.539Z,22.37
2019-05-25T03:56:57.310Z,23.40
2019-05-25T03:59:29.491Z,22.93
2019-05-25T04:02:01.822Z,22.07
2019-05-25T04:04:34.025Z,22.35
2019-05-25T04:07:06.337Z,23.57
2019-05-25T04:09:38.644Z,27.22
2019-05-25T04:12:10.792Z,26.33
2019-05-25T04:14:43.017Z,26.02
2019-05-25T04:17:15.279Z,25.77
2019-05-25T04:19:47.731Z,26.65
2019-05-25T04:22:19.808Z,26.57
2019-05-25T04:24:52.125Z,25.15
2019-05-25T04:27:25.390Z,25.92
2019-05-25T04:29:57.627Z,25.37
2019-05-25T04:32:29.960Z,26.70
2019-05-25T04:35:02.103Z,26.95
2019-05-25T04:37:34.633Z,26.35
2019-05-25T04:40:07.695Z,27.32
2019-05-25T04:42:39.925Z,26.15
2019-05-25T04:45:12.321Z,25.75
2019-05-25T04:47:44.680Z,24.75
2019-05-25T04:50:17.206Z,23.98
2019-05-25T04:52:49.535Z,23.90
2019-05-25T04:55:21.930Z,24.85
2019-05-25T04:57:54.788Z,25.90
2019-05-25T05:00:26.902Z,26.37
2019-05-25T05:02:59.201Z,24.35
2019-05-25T05:05:34.398Z,25.80
2019-05-25T05:08:06.663Z,24.60
2019-05-25T05:10:38.852Z,27.13
2019-05-25T05:13:11.187Z,45.90
2019-05-25T05:15:43.474Z,27.80
2019-05-25T05:18:15.812Z,27.87
2019-05-25T05:20:48.147Z,29.95
2019-05-25T05:23:20.440Z,28.27
2019-05-25T05:25:52.665Z,29.25
2019-05-25T05:28:25.066Z,29.12
2019-05-25T05:30:57.329Z,28.35
2019-05-25T05:33:29.707Z,62.53
2019-05-25T05:36:03.713Z,27.10
2019-05-25T05:38:36.799Z,27.20
2019-05-25T05:41:09.211Z,29.92
2019-05-25T05:43:43.834Z,29.23
2019-05-25T05:46:17.981Z,29.35
2019-05-25T05:48:52.496Z,28.80
2019-05-25T05:51:27.645Z,28.62
2019-05-25T05:54:03.079Z,27.85
2019-05-25T05:56:35.291Z,29.05
2019-05-25T05:59:07.664Z,29.57
2019-05-25T06:01:39.984Z,28.32
2019-05-25T06:04:12.063Z,26.02
2019-05-25T06:06:44.146Z,25.92
2019-05-25T06:09:16.409Z,22.75
2019-05-25T06:11:48.554Z,24.20
2019-05-25T06:14:20.765Z,23.80
2019-05-25T06:16:53.119Z,25.77
2019-05-25T06:19:25.420Z,24.92
2019-05-25T06:21:57.684Z,24.23
2019-05-25T06:24:29.909Z,24.98
2019-05-25T06:27:02.253Z,23.98
2019-05-25T06:29:34.570Z,23.35
2019-05-25T06:32:06.771Z,22.32
2019-05-25T06:34:39.002Z,21.87
2019-05-25T06:37:11.233Z,24.90
2019-05-25T06:39:43.401Z,25.85
2019-05-25T06:42:15.621Z,25.37
2019-05-25T06:44:47.972Z,29.40
2019-05-25T06:47:20.206Z,29.20
2019-05-25T06:49:54.163Z,25.97
2019-05-25T06:52:26.516Z,25.82
2019-05-25T06:54:58.729Z,28.10
2019-05-25T06:57:42.646Z,33.42
2019-05-25T07:00:07.548Z,37.30
2019-05-25T07:02:39.825Z,36.70
2019-05-25T07:05:12.714Z,37.15
2019-05-25T07:07:45.034Z,37.03
2019-05-25T07:10:17.751Z,35.38
2019-05-25T07:12:50.090Z,34.78
2019-05-25T07:15:22.295Z,36.08
2019-05-25T07:17:54.746Z,38.00
2019-05-25T07:20:28.268Z,37.15
2019-05-25T07:23:00.499Z,39.50
2019-05-25T07:25:32.857Z,41.37
2019-05-25T07:28:05.345Z,40.05
2019-05-25T07:30:37.547Z,39.38
2019-05-25T07:33:09.609Z,40.40
2019-05-25T07:35:41.834Z,40.03
2019-05-25T07:38:14.142Z,40.67
2019-05-25T07:40:46.431Z,39.65
2019-05-25T07:43:18.677Z,38.45
2019-05-25T07:45:50.976Z,37.05
2019-05-25T07:48:23.155Z,37.83
2019-05-25T07:50:55.519Z,37.00
2019-05-25T07:53:29.293Z,37.23
2019-05-25T07:56:01.521Z,35.65
2019-05-25T07:58:33.709Z,35.30
2019-05-25T08:01:06.002Z,37.80
2019-05-25T08:03:39.917Z,38.02
2019-05-25T08:06:12.127Z,37.38
2019-05-25T08:08:44.351Z,36.77
2019-05-25T08:11:16.577Z,28.65
2019-05-25T08:13:48.904Z,21.55
2019-05-25T08:16:21.231Z,21.23
2019-05-25T08:18:53.586Z,22.85
2019-05-25T08:21:25.717Z,24.92
2019-05-25T08:23:57.851Z,25.55
2019-05-25T08:26:30.202Z,25.60
2019-05-25T08:29:02.485Z,26.50
2019-05-25T08:31:35.745Z,26.77
2019-05-25T08:34:07.984Z,25.92
2019-05-25T08:36:40.238Z,26.65
2019-05-25T08:39:12.510Z,25.97
2019-05-25T08:41:45.679Z,26.02
2019-05-25T08:44:17.955Z,23.25
2019-05-25T08:46:50.053Z,20.60
2019-05-25T08:49:22.345Z,18.32
2019-05-25T08:51:55.141Z,17.10
2019-05-25T08:54:27.316Z,17.87
2019-05-25T08:56:59.599Z,16.57
2019-05-25T08:59:31.783Z,17.65
2019-05-25T09:02:04.178Z,17.73
2019-05-25T09:04:36.453Z,19.52
2019-05-25T09:07:08.914Z,18.92
2019-05-25T09:09:41.160Z,18.35
2019-05-25T09:12:13.383Z,19.40
2019-05-25T09:14:45.645Z,18.80
2019-05-25T09:17:19.608Z,19.10
2019-05-25T09:19:51.866Z,17.82
2019-05-25T09:22:24.128Z,18.25
2019-05-25T09:24:56.410Z,18.05
2019-05-25T09:27:28.824Z,15.10
2019-05-25T09:30:01.159Z,14.47
2019-05-25T09:32:33.664Z,14.87
2019-05-25T09:35:07.690Z,15.48
2019-05-25T09:37:40.690Z,16.62
2019-05-25T09:40:13.233Z,16.65
2019-05-25T09:42:45.442Z,16.97
2019-05-25T09:45:17.720Z,17.80
2019-05-25T09:47:50.058Z,17.35
2019-05-25T09:50:22.277Z,17.25
2019-05-25T09:52:54.593Z,16.05
2019-05-25T09:55:26.911Z,15.95
2019-05-25T09:57:59.140Z,14.87
2019-05-25T10:00:31.801Z,15.10
2019-05-25T10:03:04.080Z,15.53
2019-05-25T10:05:36.208Z,15.88
2019-05-25T10:08:08.454Z,19.52
2019-05-25T10:10:40.716Z,18.60
2019-05-25T10:13:12.967Z,16.70
2019-05-25T10:15:45.069Z,16.23
2019-05-25T10:18:17.203Z,16.97
2019-05-25T10:20:49.700Z,19.55
2019-05-25T10:23:21.951Z,18.67
2019-05-25T10:25:55.291Z,17.23
2019-05-25T10:28:27.487Z,16.75
2019-05-25T10:30:59.600Z,8.13
2019-05-25T10:33:32.627Z,8.58
2019-05-25T10:36:08.253Z,8.43
2019-05-25T10:38:40.631Z,8.88
2019-05-25T10:41:12.809Z,8.53
2019-05-25T10:43:45.245Z,10.38
2019-05-25T10:46:18.646Z,10.80
2019-05-25T10:48:50.817Z,11.00
2019-05-25T10:51:23.898Z,11.38
2019-05-25T10:53:57.559Z,10.80
2019-05-25T10:56:29.873Z,10.72
2019-05-25T10:59:02.155Z,11.00
2019-05-25T11:01:34.454Z,10.10
2019-05-25T11:04:06.903Z,9.25
2019-05-25T11:06:40.297Z,8.45
2019-05-25T11:09:12.658Z,9.50
2019-05-25T11:11:44.636Z,9.50
2019-05-25T11:14:17.113Z,10.23
2019-05-25T11:16:49.525Z,11.43
2019-05-25T11:19:24.171Z,12.07
2019-05-25T11:21:55.893Z,12.65
2019-05-25T11:24:28.343Z,12.40
2019-05-25T11:27:00.654Z,13.30
2019-05-25T11:29:33.020Z,12.95
2019-05-25T11:32:06.747Z,14.07
2019-05-25T11:34:39.495Z,13.62
2019-05-25T11:37:15.300Z,19.67
2019-05-25T11:39:45.728Z,16.27
2019-05-25T11:42:17.874Z,12.68
2019-05-25T11:44:50.285Z,11.70
2019-05-25T11:47:22.637Z,10.60
2019-05-25T11:49:55.067Z,12.03
2019-05-25T11:52:27.363Z,11.50
2019-05-25T11:54:59.695Z,13.20
2019-05-25T11:57:31.929Z,12.05
2019-05-25T12:00:07.126Z,17.62
2019-05-25T12:02:39.284Z,18.48
2019-05-25T12:05:13.230Z,20.80
2019-05-25T12:07:45.457Z,19.70
2019-05-25T12:10:18.084Z,20.52
2019-05-25T12:12:50.486Z,22.13
2019-05-25T12:15:22.640Z,21.30
2019-05-25T12:17:55.028Z,20.82
2019-05-25T12:20:27.412Z,18.45
2019-05-25T12:22:59.749Z,18.80
2019-05-25T12:25:32.946Z,20.10
2019-05-25T12:28:05.264Z,20.72
2019-05-25T12:30:40.848Z,17.00
2019-05-25T12:33:11.411Z,13.85
2019-05-25T12:35:45.285Z,13.00
2019-05-25T12:38:18.564Z,15.15
2019-05-25T12:40:53.943Z,98.65
2019-05-25T12:43:24.806Z,11.97
2019-05-25T12:45:57.199Z,13.45
2019-05-25T12:48:29.404Z,11.57
2019-05-25T12:51:01.624Z,9.08
2019-05-25T12:53:33.782Z,9.78
2019-05-25T12:56:06.097Z,12.55
2019-05-25T12:58:38.444Z,11.97
2019-05-25T13:01:10.757Z,12.60
2019-05-25T13:03:43.130Z,10.98
2019-05-25T13:06:18.258Z,10.98
2019-05-25T13:08:49.676Z,12.30
2019-05-25T13:11:21.962Z,10.25
2019-05-25T13:13:54.101Z,10.58
2019-05-25T13:16:26.429Z,10.93
2019-05-25T13:18:58.531Z,9.65
2019-05-25T13:21:30.741Z,10.75
2019-05-25T13:24:03.040Z,9.75
2019-05-25T13:26:35.227Z,8.88
2019-05-25T13:29:07.276Z,7.62
2019-05-25T13:31:39.467Z,7.00
2019-05-25T13:34:11.498Z,7.30
2019-05-25T13:36:43.789Z,6.90
2019-05-25T13:39:15.876Z,7.25
2019-05-25T13:41:47.930Z,9.25
2019-05-25T13:44:20.124Z,7.10
2019-05-25T13:46:52.226Z,8.20
2019-05-25T13:49:24.568Z,7.58
2019-05-25T13:51:56.616Z,7.83
2019-05-25T13:54:29.001Z,6.80
2019-05-25T13:57:01.075Z,5.83
2019-05-25T13:59:33.136Z,5.90
2019-05-25T14:02:05.322Z,6.03
2019-05-25T14:04:37.624Z,5.50
2019-05-25T14:07:09.703Z,6.15
2019-05-25T14:09:41.799Z,6.30
2019-05-25T14:12:14.110Z,7.33
2019-05-25T14:14:46.041Z,6.80
2019-05-25T14:17:18.191Z,8.15
2019-05-25T14:19:50.477Z,9.93
2019-05-25T14:22:22.706Z,6.00
2019-05-25T14:24:55.032Z,7.20
2019-05-25T14:27:27.250Z,5.90
2019-05-25T14:29:59.297Z,5.72
2019-05-25T14:32:31.429Z,8.08
2019-05-25T14:35:04.380Z,6.80
2019-05-25T14:37:36.635Z,7.05
2019-05-25T14:40:11.455Z,6.33
2019-05-25T14:42:43.368Z,7.15
2019-05-25T14:45:15.714Z,9.20
2019-05-25T14:47:48.042Z,8.25
2019-05-25T14:50:28.367Z,12.00
2019-05-25T14:53:00.615Z,11.25
2019-05-25T14:55:32.834Z,9.03
2019-05-25T14:58:05.263Z,8.58
2019-05-25T15:00:37.639Z,7.47
2019-05-25T15:03:09.781Z,7.55
2019-05-25T15:05:41.755Z,6.78
2019-05-25T15:08:13.992Z,7.50
2019-05-25T15:10:46.096Z,10.00
2019-05-25T15:13:18.386Z,15.10
2019-05-25T15:15:50.571Z,16.42
2019-05-25T15:18:22.858Z,16.45
2019-05-25T15:20:55.248Z,11.38
2019-05-25T15:23:27.611Z,9.33
2019-05-25T15:26:00.221Z,9.50
2019-05-25T15:28:32.484Z,7.90
2019-05-25T15:31:04.725Z,7.83
2019-05-25T15:33:37.373Z,9.78
2019-05-25T15:36:09.727Z,8.90
2019-05-25T15:38:41.952Z,9.35
2019-05-25T15:41:14.023Z,9.43
2019-05-25T15:43:46.882Z,10.98
2019-05-25T15:46:19.271Z,11.28
2019-05-25T15:48:51.730Z,9.78
2019-05-25T15:51:23.918Z,11.78
2019-05-25T15:53:56.218Z,12.45
2019-05-25T15:56:29.511Z,10.43
2019-05-25T15:59:01.749Z,15.65
2019-05-25T16:01:34.323Z,10.10
2019-05-25T16:04:06.701Z,32.50
2019-05-25T16:06:39.104Z,9.33
2019-05-25T16:09:14.581Z,10.10
2019-05-25T16:11:46.890Z,13.22
2019-05-25T16:14:19.199Z,9.98
2019-05-25T16:16:51.686Z,8.13
2019-05-25T16:19:24.888Z,8.83
2019-05-25T16:21:57.195Z,9.08
2019-05-25T16:24:29.503Z,9.08
2019-05-25T16:27:02.006Z,12.05
2019-05-25T16:29:35.549Z,8.28
2019-05-25T16:32:07.780Z,9.90
2019-05-25T16:34:40.083Z,7.85
2019-05-25T16:37:12.438Z,7.55
2019-05-25T16:39:44.626Z,6.85
2019-05-25T16:42:16.718Z,7.15
2019-05-25T16:44:48.859Z,7.28
2019-05-25T16:47:23.201Z,6.17
2019-05-25T16:49:55.290Z,7.37
2019-05-25T16:52:27.614Z,7.20
2019-05-25T16:54:59.866Z,7.35
2019-05-25T16:57:31.956Z,7.85
2019-05-25T17:00:07.996Z,8.00
2019-05-25T17:02:40.385Z,7.30
2019-05-25T17:05:12.784Z,7.58
2019-05-25T17:07:44.941Z,7.92
2019-05-25T17:10:18.425Z,7.78
2019-05-25T17:12:50.433Z,10.55
2019-05-25T17:15:22.740Z,7.67
2019-05-25T17:17:54.915Z,9.55
2019-05-25T17:20:27.221Z,8.00
2019-05-25T17:22:59.601Z,7.17
2019-05-25T17:25:31.933Z,8.33
2019-05-25T17:28:04.505Z,8.18
2019-05-25T17:30:47.145Z,8.35
2019-05-25T17:33:19.415Z,8.28
2019-05-25T17:35:51.745Z,8.10
2019-05-25T17:38:24.006Z,8.48
2019-05-25T17:40:56.307Z,8.33
2019-05-25T17:43:28.503Z,8.93
2019-05-25T17:46:00.542Z,9.70
2019-05-25T17:48:32.771Z,9.13
2019-05-25T17:51:05.120Z,9.50
2019-05-25T17:53:37.225Z,10.55
2019-05-25T17:56:09.614Z,9.78
2019-05-25T17:58:41.885Z,10.78
2019-05-25T18:01:14.296Z,10.23
2019-05-25T18:04:04.945Z,10.80
2019-05-25T18:06:20.605Z,10.48
2019-05-25T18:08:52.910Z,11.70
2019-05-25T18:11:25.413Z,12.07
2019-05-25T18:13:59.161Z,12.68
2019-05-25T18:16:31.642Z,11.57
2019-05-25T18:19:04.002Z,12.13
2019-05-25T18:21:36.286Z,11.75
2019-05-25T18:24:08.706Z,11.05
2019-05-25T18:26:40.888Z,12.00
2019-05-25T18:29:13.282Z,11.57
2019-05-25T18:31:45.553Z,12.47
2019-05-25T18:34:22.052Z,11.80
2019-05-25T18:36:51.801Z,11.38
2019-05-25T18:39:25.969Z,11.45
2019-05-25T18:41:58.279Z,11.48
2019-05-25T18:44:30.584Z,11.20
2019-05-25T18:47:03.987Z,15.40
2019-05-25T18:49:36.434Z,17.20
2019-05-25T18:52:09.138Z,19.02
2019-05-25T18:54:41.838Z,18.25
2019-05-25T18:57:14.298Z,17.87
2019-05-25T18:59:46.571Z,18.07
2019-05-25T19:02:19.123Z,17.82
2019-05-25T19:04:59.370Z,17.25
2019-05-25T19:07:25.723Z,16.82
2019-05-25T19:09:58.078Z,17.12
2019-05-25T19:12:30.712Z,20.92
2019-05-25T19:15:03.119Z,16.27
2019-05-25T19:17:35.576Z,15.90
2019-05-25T19:20:09.405Z,16.57
2019-05-25T19:22:41.768Z,16.27
2019-05-25T19:25:14.450Z,15.00
2019-05-25T19:27:47.146Z,15.60
2019-05-25T19:30:20.066Z,15.72
2019-05-25T19:32:52.376Z,14.68
2019-05-25T19:35:24.640Z,16.42
2019-05-25T19:37:56.879Z,18.27
2019-05-25T19:40:30.649Z,20.90
2019-05-25T19:43:03.119Z,19.98
2019-05-25T19:45:35.339Z,19.37
2019-05-25T19:48:07.866Z,18.55
2019-05-25T19:50:40.128Z,18.07
2019-05-25T19:53:12.519Z,18.82
2019-05-25T19:55:44.922Z,19.42
2019-05-25T19:58:17.288Z,18.87
2019-05-25T20:00:49.625Z,18.45
2019-05-25T20:03:22.037Z,19.82
2019-05-25T20:05:55.332Z,20.10
2019-05-25T20:08:27.680Z,20.85
2019-05-25T20:11:00.183Z,20.95
2019-05-25T20:13:32.653Z,24.23
2019-05-25T20:16:05.896Z,26.85
2019-05-25T20:18:39.684Z,27.73
2019-05-25T20:21:11.994Z,28.15
2019-05-25T20:23:44.297Z,28.27
2019-05-25T20:26:16.624Z,28.12
2019-05-25T20:28:50.772Z,27.05
2019-05-25T20:31:23.359Z,29.00
2019-05-25T20:33:57.066Z,26.12
2019-05-25T20:36:30.841Z,27.17
2019-05-25T20:39:03.159Z,26.80
2019-05-25T20:41:35.472Z,26.70
2019-05-25T20:44:08.234Z,26.57
2019-05-25T20:46:40.524Z,26.60
2019-05-25T20:49:12.643Z,27.13
2019-05-25T20:51:44.986Z,25.55
2019-05-25T20:54:17.245Z,26.57
2019-05-25T20:56:49.421Z,26.97
2019-05-25T20:59:21.622Z,28.02
2019-05-25T21:01:54.880Z,29.05
2019-05-25T21:04:27.195Z,28.35
2019-05-25T21:06:59.536Z,28.15
2019-05-25T21:09:31.760Z,28.27
2019-05-25T21:12:04.043Z,30.20
2019-05-25T21:14:36.398Z,31.52
2019-05-25T21:17:08.495Z,32.13
2019-05-25T21:19:40.720Z,34.92
2019-05-25T21:22:13.039Z,29.42
2019-05-25T21:24:45.122Z,30.75
2019-05-25T21:27:17.373Z,29.32
2019-05-25T21:29:49.648Z,46.80
2019-05-25T21:32:22.832Z,29.67
2019-05-25T21:34:55.213Z,30.60
2019-05-25T21:37:27.506Z,32.73
2019-05-25T21:39:59.665Z,30.70
2019-05-25T21:42:31.917Z,32.05
2019-05-25T21:45:06.194Z,32.28
2019-05-25T21:47:38.520Z,32.60
2019-05-25T21:50:10.989Z,32.53
2019-05-25T21:52:43.217Z,31.90
2019-05-25T21:55:15.825Z,31.15
2019-05-25T21:57:48.123Z,31.35
2019-05-25T22:00:25.188Z,32.13
2019-05-25T22:02:59.148Z,33.28
2019-05-25T22:05:32.656Z,32.98
2019-05-25T22:08:05.059Z,32.95
2019-05-25T22:10:37.337Z,34.78
2019-05-25T22:13:23.777Z,32.83
2019-05-25T22:15:44.398Z,31.48
2019-05-25T22:18:16.780Z,31.77
2019-05-25T22:20:49.129Z,31.17
2019-05-25T22:23:21.403Z,31.52
2019-05-25T22:25:53.671Z,29.77
2019-05-25T22:28:25.947Z,31.00
2019-05-25T22:30:59.352Z,29.95
2019-05-25T22:33:31.755Z,30.70
2019-05-25T22:36:04.616Z,29.48
2019-05-25T22:38:36.783Z,29.20
2019-05-25T22:41:08.947Z,29.30
2019-05-25T22:43:41.286Z,29.27
2019-05-25T22:46:15.530Z,28.77
2019-05-25T22:48:47.804Z,28.35
2019-05-25T22:51:20.181Z,29.05
2019-05-25T22:53:52.611Z,34.63
2019-05-25T22:56:24.662Z,31.40
2019-05-25T22:58:56.885Z,29.80
2019-05-25T23:01:29.258Z,29.67
2019-05-25T23:04:02.614Z,30.48
2019-05-25T23:06:35.017Z,31.77
2019-05-25T23:09:08.060Z,32.88
2019-05-25T23:11:40.536Z,40.30
2019-05-25T23:14:12.759Z,40.75
2019-05-25T23:16:45.152Z,39.92
2019-05-25T23:19:17.487Z,39.23
2019-05-25T23:21:49.721Z,39.25
2019-05-25T23:24:22.037Z,38.92
2019-05-25T23:26:54.343Z,40.38
2019-05-25T23:29:26.727Z,41.95
2019-05-25T23:31:59.087Z,42.35
2019-05-25T23:34:31.487Z,42.13
2019-05-25T23:37:14.252Z,42.53
2019-05-25T23:39:37.593Z,42.10
2019-05-25T23:42:11.837Z,44.48
2019-05-25T23:44:43.969Z,42.23
2019-05-25T23:47:16.264Z,45.03
2019-05-25T23:49:48.448Z,45.23
2019-05-25T23:52:20.852Z,45.50
2019-05-25T23:54:53.118Z,46.88
2019-05-25T23:57:25.481Z,46.95
2019-05-25T23:59:57.709Z,46.35
